ミラノ/マルペンサ の空港の天気 - METARとTAF

ミラノ・マルペンサ国際空港 ( LIMC / MXP ) - イタリア ミラノ
飛行場実況気象(Metar)
観測時間08/17 05:20 CEST (08/17 03:20 UTC)
風向・風速北 4m/s
視程10km以上
天気現象
なし
気温20℃
湿度83%
気圧1019hPa
METARLIMC 170320Z 36008KT CAVOK 20/17 Q1019 NOSIG
過去の天気等 Google飛行場航空写真 Wunderground天気予報

過去48時間のMETAR

飛行場予報(TAF)
発表時間: 8/17 01:00 CEST (8/16 23:00 UTC)
予報対象時間: 17日2時 CEST ~ 18日8時 CEST
風向・風速不定 3m/s
視程10km以上
なし
TAF LIMC 162300Z 1700/1806 VRB05KT CAVOK